CheckWX is a tool to help pilots better visualize weather data.  It is not intended as a substitute for an official pre-flight weather briefing.

10:17:29 UTC

FBSP METAR
Selebi Phikwe Airport
Botswana
Current

1 hour ago

FBSP 160900Z 09010KT CAVOK 20/11 Q1028
Observed
Jul-16 @ 09:00 UTC
Wind
  • 090° at 10 KTS
Visibility
10,000+ meters
Flight Rules
VFR
Cloud Levels
  • Clear skies
Temperature
20°C / 68°F
Dewpoint
11°C / 52°F
Humidity
56%
Altimeter
30.35" Hg
Pressure
1027.92 hPa
Previous

2 hours ago

FBSP 160800Z 09011KT CAVOK 20/10 Q1029
Observed
Jul-16 @ 08:00 UTC
Wind
  • 090° at 11 KTS
Visibility
10,000+ meters
Flight Rules
VFR
Cloud Levels
  • Clear skies
Temperature
20°C / 68°F
Dewpoint
10°C / 50°F
Humidity
53%
Altimeter
30.38" Hg
Pressure
1028.92 hPa
Previous

3 hours ago

FBSP 160700Z 09010KT CAVOK 17/10 Q1029
Observed
Jul-16 @ 07:00 UTC
Wind
  • 090° at 10 KTS
Visibility
10,000+ meters
Flight Rules
VFR
Cloud Levels
  • Clear skies
Temperature
17°C / 63°F
Dewpoint
10°C / 50°F
Humidity
64%
Altimeter
30.38" Hg
Pressure
1028.92 hPa